Wayne, NE

2:31 AM CDT on March 25, 2017 (GMT -0500)
1 mile South of Wayne | | Change Station

Elev 1463 ft 42.22 °N, 97.01 °W | Updated 3 seconds ago

Overcast
Overcast
37.4 °F
Feels Like 33 °F
N
6.0
Wind Variable Wind from NE
Gusts 7.4 mph

Today
High -- | Low -- °F
--% Chance of Precip.
Yesterday
High -- | Low -- °F
Precip. -- in
Pressure 30.03 in
Visibility 4.0 miles
Clouds Overcast 300 ft
Windchill 33 °F
Dew Point 37 °F
Humidity 99%
Rainfall 0.00 in
Snow Depth Not available.
7:22 AM 7:46 PM
Waning Crescent, 10% visible
METAR KLCG 250715Z AUTO 01015KT 4SM BR OVC003 03/03 A3003 RMK AO2 T00300028
Pressure 30.03 in
Visibility 4.0 miles
Clouds Overcast 300 ft
Windchill 33 °F
Dew Point 37 °F
Humidity 99%
Rainfall 0.00 in
Snow Depth Not available.
7:22 AM 7:46 PM
Waning Crescent, 10% visible
METAR KLCG 250715Z AUTO 01015KT 4SM BR OVC003 03/03 A3003 RMK AO2 T00300028

Get Severe Weather Alerts

Thanks for signing up!

Be on the lookout for a verification email in your inbox.

You'll start receiving the daily forecast at 8 AM.

×

10-Day Weather Forecast

Almanac

Astronomy

Mar. 25, 2017 Rise Set
Actual Time
Civil Twilight
Nautical Twilight
Astronomical Twilight
Moon
Length of Visible Light
Length of Day
Tomorrow will be .
, % of the Moon is Illuminated

Today's Extremes

State Highs State Lows

Community

WunderPhotos

Upload Photos

1,962,540 photos uploaded!

WunderBlog® & News

Nearby

Air Quality

  Air Quality AQ Index Pollutant
Not available.

Snow Depth

Station Depth Elevation

Earthquake Activity

City Distance Mag. Time & Date
Minimum magnitude displayed is 2.5.

Earthquake Activity

City Distance Mag. Time & Date
Minimum magnitude displayed is 2.5.

Coastal Water Temperatures

Place Temperature

Stations

Nearby Weather Stations

Station Location Temp. Windchill Dew Point Humidity Wind Precip. Elev Updated Type
                   

Watches & Warnings

There are currently no watches in effect.